Main page
METAR-TAF:

METAR-TAF

Airports :

Sulaimaniyah International Airport

Sulaymaniyah, Iraq

latitude: 35-33-39N, longitude: 45-18-52E, elevation: 760 m

Current weather observation

The report was made 52 minutes ago, at 16:00 UTC
Wind 2 kt from variable directions
Temperature 5°C
Humidity 48%
Pressure 1025 hPa
Visibility 10 km or more
no clouds below 1500 m and no cumulonimbus

METAR: ORSU 251600Z VRB02KT CAVOK 05/M05 Q1025

Time: 19:52 (16:52 UTC)

Forecast

The report was made 5 hours and 22 minutes ago, at 11:30 UTC
Forecast valid from 25 at 12 UTC to 26 at 12 UTC
Wind 15 kt from the Northeast
Visibility 10 km or more
no clouds below 1500 m and no cumulonimbus
Becoming
from 26 at 00 UTC to 26 at 02 UTC
Wind 4 kt from variable directions
Becoming
from 26 at 06 UTC to 26 at 08 UTC
Wind 6 kt from the Southeast

TAF: ORSU 251130Z 2512/2612 04015KT CAVOK BECMG 2600/2602 VRB04KT BECMG 2606/2608 13006KT

Weather observations and forecasts of more than 4000 airports (METAR and TAF reports).

The available stations are represented by yellow and red dots on the map.

Hover mouse over dot to see the name of the station.

Then click to see weather observations and forecasts.

To change the map : click on the green buttons with a black cross to zoom in, on the green button with a dash to zoom out, or on the green arrows for adjacent maps.


METAR-TAF: